createdAt,value
2019-02-21T00:01:24.550Z,47.90
2019-02-21T00:03:50.925Z,47.90
2019-02-21T00:06:17.228Z,47.90
2019-02-21T00:08:45.070Z,47.90
2019-02-21T00:11:11.386Z,47.90
2019-02-21T00:13:37.663Z,47.90
2019-02-21T00:16:05.513Z,47.90
2019-02-21T00:18:32.263Z,47.90
2019-02-21T00:20:58.564Z,48.00
2019-02-21T00:23:24.858Z,48.00
2019-02-21T00:25:51.141Z,48.00
2019-02-21T00:28:17.547Z,48.00
2019-02-21T00:30:43.823Z,48.00
2019-02-21T00:33:10.130Z,48.00
2019-02-21T00:35:36.414Z,47.90
2019-02-21T00:38:02.723Z,47.90
2019-02-21T00:40:30.223Z,48.00
2019-02-21T00:42:56.506Z,48.00
2019-02-21T00:45:22.797Z,48.10
2019-02-21T00:47:49.339Z,48.10
2019-02-21T00:50:15.686Z,48.10
2019-02-21T00:52:42.062Z,48.60
2019-02-21T00:55:08.371Z,48.20
2019-02-21T00:57:34.643Z,48.30
2019-02-21T01:00:01.094Z,48.30
2019-02-21T01:02:27.383Z,48.30
2019-02-21T01:04:53.690Z,48.40
2019-02-21T01:07:19.974Z,48.40
2019-02-21T01:09:46.371Z,48.40
2019-02-21T01:12:12.679Z,48.50
2019-02-21T01:14:38.967Z,49.20
2019-02-21T01:17:05.282Z,48.80
2019-02-21T01:19:31.554Z,48.70
2019-02-21T01:21:58.182Z,48.70
2019-02-21T01:24:24.824Z,48.60
2019-02-21T01:26:51.124Z,48.60
2019-02-21T01:29:17.411Z,48.80
2019-02-21T01:31:44.019Z,48.90
2019-02-21T01:34:10.287Z,49.10
2019-02-21T01:36:36.842Z,48.90
2019-02-21T01:39:04.946Z,49.00
2019-02-21T01:41:32.438Z,49.00
2019-02-21T01:43:58.742Z,49.00
2019-02-21T01:46:25.384Z,48.90
2019-02-21T01:48:51.782Z,49.00
2019-02-21T01:51:18.061Z,49.00
2019-02-21T01:53:44.394Z,49.00
2019-02-21T01:56:11.013Z,49.00
2019-02-21T01:58:37.303Z,48.90
2019-02-21T02:01:08.697Z,49.00
2019-02-21T02:03:31.913Z,49.10
2019-02-21T02:05:58.186Z,49.20
2019-02-21T02:08:24.574Z,49.30
2019-02-21T02:10:51.254Z,49.40
2019-02-21T02:13:24.538Z,49.40
2019-02-21T02:15:45.745Z,49.40
2019-02-21T02:18:12.037Z,49.40
2019-02-21T02:20:38.425Z,49.60
2019-02-21T02:23:05.058Z,49.50
2019-02-21T02:25:31.818Z,49.40
2019-02-21T02:27:58.104Z,49.40
2019-02-21T02:30:24.418Z,49.20
2019-02-21T02:32:50.838Z,49.60
2019-02-21T02:35:17.642Z,49.10
2019-02-21T02:37:46.715Z,49.10
2019-02-21T02:40:13.276Z,49.10
2019-02-21T02:42:39.565Z,49.00
2019-02-21T02:45:06.551Z,49.00
2019-02-21T02:47:32.845Z,49.00
2019-02-21T02:49:59.647Z,49.10
2019-02-21T02:52:25.951Z,49.20
2019-02-21T02:54:52.265Z,49.40
2019-02-21T02:57:18.563Z,49.40
2019-02-21T02:59:45.151Z,49.40
2019-02-21T03:02:11.573Z,49.50
2019-02-21T03:04:38.095Z,49.50
2019-02-21T03:07:04.463Z,49.60
2019-02-21T03:09:31.087Z,49.70
2019-02-21T03:11:57.406Z,49.90
2019-02-21T03:14:24.058Z,50.00
2019-02-21T03:16:50.364Z,50.10
2019-02-21T03:19:16.634Z,50.10
2019-02-21T03:21:49.891Z,50.10
2019-02-21T03:24:16.550Z,50.20
2019-02-21T03:26:43.457Z,50.20
2019-02-21T03:29:09.911Z,50.20
2019-02-21T03:31:53.333Z,50.30
2019-02-21T03:34:04.899Z,50.40
2019-02-21T03:36:31.335Z,50.30
2019-02-21T03:38:57.905Z,50.30
2019-02-21T03:41:24.327Z,50.30
2019-02-21T03:43:50.594Z,50.30
2019-02-21T03:46:16.881Z,50.30
2019-02-21T03:48:43.274Z,50.30
2019-02-21T03:51:10.656Z,50.30
2019-02-21T03:53:37.783Z,50.30
2019-02-21T03:56:04.495Z,50.40
2019-02-21T03:58:30.802Z,50.30
2019-02-21T04:00:57.468Z,50.30
2019-02-21T04:03:24.079Z,50.40
2019-02-21T04:05:50.550Z,50.40
2019-02-21T04:08:16.856Z,50.50
2019-02-21T04:10:43.506Z,50.40
2019-02-21T04:13:10.246Z,50.40
2019-02-21T04:15:36.641Z,50.40
2019-02-21T04:18:03.220Z,50.50
2019-02-21T04:20:29.619Z,50.50
2019-02-21T04:22:56.008Z,50.50
2019-02-21T04:25:22.429Z,50.50
2019-02-21T04:27:49.259Z,50.80
2019-02-21T04:30:15.663Z,50.50
2019-02-21T04:32:41.970Z,50.50
2019-02-21T04:35:08.375Z,50.50
2019-02-21T04:37:34.681Z,50.50
2019-02-21T04:40:01.096Z,50.50
2019-02-21T04:42:27.469Z,50.60
2019-02-21T04:44:53.847Z,50.70
2019-02-21T04:47:20.133Z,50.70
2019-02-21T04:49:46.419Z,50.70
2019-02-21T04:52:19.535Z,51.00
2019-02-21T04:54:46.301Z,50.70
2019-02-21T04:57:12.699Z,50.70
2019-02-21T04:59:39.472Z,50.70
2019-02-21T05:02:05.865Z,50.80
2019-02-21T05:04:32.154Z,50.80
2019-02-21T05:06:58.650Z,50.90
2019-02-21T05:09:27.034Z,51.30
2019-02-21T05:11:53.210Z,50.80
2019-02-21T05:14:19.524Z,50.90
2019-02-21T05:16:45.903Z,50.90
2019-02-21T05:19:12.306Z,50.90
2019-02-21T05:21:39.802Z,50.90
2019-02-21T05:24:06.119Z,51.40
2019-02-21T05:26:40.167Z,50.90
2019-02-21T05:29:08.489Z,50.90
2019-02-21T05:31:46.259Z,50.90
2019-02-21T05:34:17.207Z,50.90
2019-02-21T05:36:48.495Z,51.40
2019-02-21T05:39:33.632Z,50.50
2019-02-21T05:42:04.874Z,50.90
2019-02-21T05:44:33.720Z,51.00
2019-02-21T05:47:08.256Z,50.90
2019-02-21T05:49:42.772Z,50.90
2019-02-21T05:52:11.049Z,50.90
2019-02-21T05:54:39.552Z,51.00
2019-02-21T05:57:10.866Z,51.10
2019-02-21T05:59:48.490Z,51.00
2019-02-21T06:02:25.623Z,51.00
2019-02-21T06:05:00.003Z,51.00
2019-02-21T06:07:28.287Z,51.00
2019-02-21T06:10:07.194Z,51.00
2019-02-21T06:12:38.430Z,51.00
2019-02-21T06:15:06.946Z,51.10
2019-02-21T06:17:50.264Z,51.10
2019-02-21T06:20:35.059Z,51.60
2019-02-21T06:23:09.298Z,51.10
2019-02-21T06:25:50.838Z,51.20
2019-02-21T06:28:13.833Z,51.20
2019-02-21T06:30:43.347Z,51.20
2019-02-21T06:33:09.946Z,51.20
2019-02-21T06:35:36.322Z,51.30
2019-02-21T06:38:03.084Z,51.30
2019-02-21T06:40:29.456Z,51.20
2019-02-21T06:42:55.850Z,51.30
2019-02-21T06:45:22.131Z,51.20
2019-02-21T06:47:48.532Z,51.10
2019-02-21T06:50:14.816Z,51.10
2019-02-21T06:52:41.126Z,51.00
2019-02-21T06:55:07.607Z,51.00
2019-02-21T06:57:33.937Z,51.00
2019-02-21T07:00:00.342Z,51.00
2019-02-21T07:02:28.126Z,51.10
2019-02-21T07:04:56.622Z,51.20
2019-02-21T07:07:23.454Z,51.20
2019-02-21T07:09:49.732Z,51.30
2019-02-21T07:12:16.163Z,51.30
2019-02-21T07:14:42.550Z,51.50
2019-02-21T07:17:08.839Z,52.00
2019-02-21T07:19:35.153Z,51.50
2019-02-21T07:22:01.865Z,51.60
2019-02-21T07:24:28.818Z,52.00
2019-02-21T07:26:55.117Z,51.70
2019-02-21T07:29:21.539Z,51.80
2019-02-21T07:31:49.402Z,51.80
2019-02-21T07:34:16.039Z,51.90
2019-02-21T07:36:42.315Z,51.90
2019-02-21T07:39:16.830Z,52.00
2019-02-21T07:41:37.079Z,52.00
2019-02-21T07:44:11.756Z,52.00
2019-02-21T07:46:32.448Z,52.00
2019-02-21T07:48:58.983Z,52.10
2019-02-21T07:51:25.277Z,52.10
2019-02-21T07:53:51.546Z,52.00
2019-02-21T07:56:18.157Z,52.30
2019-02-21T07:58:44.467Z,51.90
2019-02-21T08:01:10.862Z,51.60
2019-02-21T08:03:44.244Z,51.80
2019-02-21T08:06:05.644Z,52.10
2019-02-21T08:08:32.575Z,51.90
2019-02-21T08:10:59.130Z,51.90
2019-02-21T08:13:25.420Z,52.00
2019-02-21T08:15:51.992Z,52.00
2019-02-21T08:18:18.391Z,52.00
2019-02-21T08:20:44.670Z,52.00
2019-02-21T08:23:11.291Z,52.00
2019-02-21T08:25:37.567Z,51.90
2019-02-21T08:28:04.071Z,51.90
2019-02-21T08:30:32.860Z,52.00
2019-02-21T08:33:19.351Z,52.00
2019-02-21T08:35:45.709Z,52.10
2019-02-21T08:38:12.263Z,52.10
2019-02-21T08:40:39.163Z,52.30
2019-02-21T08:43:05.541Z,52.30
2019-02-21T08:45:32.150Z,52.20
2019-02-21T08:47:58.792Z,52.20
2019-02-21T08:50:25.168Z,52.10
2019-02-21T08:52:51.471Z,52.00
2019-02-21T08:55:19.190Z,51.90
2019-02-21T08:57:45.504Z,51.90
2019-02-21T09:00:14.139Z,51.80
2019-02-21T09:02:40.743Z,51.80
2019-02-21T09:05:10.331Z,51.80
2019-02-21T09:07:37.832Z,51.90
2019-02-21T09:10:07.620Z,52.00
2019-02-21T09:12:34.572Z,52.10
2019-02-21T09:15:00.975Z,52.50
2019-02-21T09:17:27.241Z,53.30
2019-02-21T09:19:53.897Z,54.50
2019-02-21T09:22:20.299Z,55.50
2019-02-21T09:24:46.635Z,56.50
2019-02-21T09:27:14.446Z,56.90
2019-02-21T09:29:40.744Z,55.50
2019-02-21T09:32:07.499Z,53.70
2019-02-21T09:34:33.799Z,52.90
2019-02-21T09:37:00.179Z,52.10
2019-02-21T09:39:26.455Z,50.40
2019-02-21T09:41:52.854Z,48.90
2019-02-21T09:44:19.231Z,47.80
2019-02-21T09:46:45.532Z,47.50
2019-02-21T09:49:11.798Z,47.40
2019-02-21T09:51:38.094Z,47.60
2019-02-21T09:54:04.562Z,49.10
2019-02-21T09:56:31.001Z,50.00
2019-02-21T09:58:57.467Z,49.70
2019-02-21T10:01:23.789Z,49.10
2019-02-21T10:03:50.259Z,48.60
2019-02-21T10:06:16.956Z,48.10
2019-02-21T10:08:43.704Z,47.70
2019-02-21T10:11:11.500Z,47.40
2019-02-21T10:13:37.988Z,47.20
2019-02-21T10:16:04.902Z,47.20
2019-02-21T10:18:31.792Z,47.10
2019-02-21T10:20:58.286Z,47.00
2019-02-21T10:23:24.720Z,47.00
2019-02-21T10:25:51.291Z,47.20
2019-02-21T10:28:17.932Z,47.40
2019-02-21T10:30:44.206Z,47.60
2019-02-21T10:33:10.898Z,47.70
2019-02-21T10:35:37.166Z,48.00
2019-02-21T10:38:03.675Z,48.20
2019-02-21T10:40:30.297Z,48.30
2019-02-21T10:42:56.698Z,48.30
2019-02-21T10:45:23.080Z,48.30
2019-02-21T10:47:49.474Z,48.60
2019-02-21T10:50:17.546Z,49.30
2019-02-21T10:52:43.938Z,50.40
2019-02-21T10:55:10.863Z,50.80
2019-02-21T10:57:37.270Z,51.00
2019-02-21T11:00:10.579Z,51.50
2019-02-21T11:02:37.523Z,51.10
2019-02-21T11:05:06.903Z,50.80
2019-02-21T11:07:34.175Z,51.30
2019-02-21T11:10:00.673Z,50.90
2019-02-21T11:12:27.080Z,50.20
2019-02-21T11:14:53.478Z,49.90
2019-02-21T11:17:19.843Z,50.40
2019-02-21T11:19:46.334Z,49.30
2019-02-21T11:22:12.617Z,49.30
2019-02-21T11:24:39.023Z,48.90
2019-02-21T11:27:05.318Z,48.20
2019-02-21T11:29:31.609Z,47.80
2019-02-21T11:31:58.336Z,45.90
2019-02-21T11:34:24.759Z,45.60
2019-02-21T11:36:51.040Z,45.00
2019-02-21T11:39:17.439Z,44.60
2019-02-21T11:41:43.806Z,44.80
2019-02-21T11:44:10.102Z,45.10
2019-02-21T11:46:36.473Z,45.40
2019-02-21T11:49:03.573Z,45.50
2019-02-21T11:51:30.019Z,45.00
2019-02-21T11:53:56.747Z,45.10
2019-02-21T11:56:23.595Z,45.00
2019-02-21T11:58:50.319Z,45.00
2019-02-21T12:01:16.693Z,45.30
2019-02-21T12:03:43.014Z,45.50
2019-02-21T12:06:09.820Z,46.30
2019-02-21T12:08:36.292Z,46.50
2019-02-21T12:11:02.746Z,46.00
2019-02-21T12:13:29.259Z,44.70
2019-02-21T12:15:55.974Z,45.10
2019-02-21T12:18:22.603Z,44.70
2019-02-21T12:20:49.444Z,44.70
2019-02-21T12:23:17.749Z,45.40
2019-02-21T12:25:44.217Z,46.10
2019-02-21T12:28:10.726Z,45.80
2019-02-21T12:30:37.052Z,45.70
2019-02-21T12:33:03.505Z,46.00
2019-02-21T12:35:30.331Z,46.10
2019-02-21T12:37:56.988Z,45.60
2019-02-21T12:40:23.671Z,45.20
2019-02-21T12:42:50.167Z,45.20
2019-02-21T12:45:21.525Z,44.00
2019-02-21T12:47:53.194Z,43.50
2019-02-21T12:50:16.317Z,42.80
2019-02-21T12:52:42.660Z,42.30
2019-02-21T12:55:10.126Z,42.00
2019-02-21T12:57:36.759Z,41.60
2019-02-21T13:00:06.987Z,41.00
2019-02-21T13:02:33.720Z,41.20
2019-02-21T13:05:00.304Z,41.40
2019-02-21T13:07:28.167Z,41.50
2019-02-21T13:09:54.560Z,41.70
2019-02-21T13:12:20.962Z,41.80
2019-02-21T13:14:47.424Z,41.70
2019-02-21T13:17:13.722Z,42.20
2019-02-21T13:19:40.091Z,42.00
2019-02-21T13:22:06.397Z,42.20
2019-02-21T13:24:32.846Z,42.10
2019-02-21T13:26:59.135Z,41.90
2019-02-21T13:29:25.978Z,41.70
2019-02-21T13:31:52.598Z,41.60
2019-02-21T13:34:18.998Z,41.40
2019-02-21T13:36:46.446Z,41.30
2019-02-21T13:39:12.870Z,41.00
2019-02-21T13:41:39.299Z,40.90
2019-02-21T13:44:05.649Z,41.20
2019-02-21T13:46:37.271Z,41.40
2019-02-21T13:49:00.602Z,41.30
2019-02-21T13:51:26.991Z,41.30
2019-02-21T13:53:53.413Z,41.40
2019-02-21T13:56:19.858Z,41.60
2019-02-21T13:58:47.406Z,41.40
2019-02-21T14:01:14.604Z,41.40
2019-02-21T14:03:42.319Z,41.40
2019-02-21T14:06:09.019Z,41.40
2019-02-21T14:08:35.487Z,41.50
2019-02-21T14:11:01.887Z,41.50
2019-02-21T14:13:28.264Z,41.10
2019-02-21T14:15:54.595Z,41.40
2019-02-21T14:18:20.943Z,41.30
2019-02-21T14:20:47.363Z,41.30
2019-02-21T14:23:13.797Z,41.30
2019-02-21T14:25:41.201Z,41.50
2019-02-21T14:28:08.079Z,41.60
2019-02-21T14:30:34.623Z,41.60
2019-02-21T14:33:01.065Z,41.50
2019-02-21T14:35:27.656Z,41.60
2019-02-21T14:37:54.151Z,41.60
2019-02-21T14:40:20.460Z,41.60
2019-02-21T14:42:47.292Z,41.70
2019-02-21T14:45:18.097Z,42.30
2019-02-21T14:47:44.505Z,41.80
2019-02-21T14:50:11.308Z,41.90
2019-02-21T14:52:37.755Z,41.90
2019-02-21T14:55:07.004Z,42.30
2019-02-21T14:57:40.973Z,42.10
2019-02-21T15:00:08.978Z,42.60
2019-02-21T15:02:35.454Z,42.30
2019-02-21T15:05:02.538Z,42.30
2019-02-21T15:07:28.938Z,42.50
2019-02-21T15:09:55.647Z,42.60
2019-02-21T15:12:22.006Z,42.60
2019-02-21T15:14:48.360Z,42.70
2019-02-21T15:17:15.151Z,42.60
2019-02-21T15:19:41.637Z,42.60
2019-02-21T15:22:08.063Z,42.60
2019-02-21T15:24:34.763Z,42.60
2019-02-21T15:27:08.418Z,42.60
2019-02-21T15:29:29.442Z,42.40
2019-02-21T15:31:55.735Z,42.40
2019-02-21T15:34:22.302Z,42.20
2019-02-21T15:36:49.731Z,42.30
2019-02-21T15:39:16.064Z,42.40
2019-02-21T15:41:42.755Z,42.30
2019-02-21T15:44:09.135Z,42.30
2019-02-21T15:46:35.592Z,42.30
2019-02-21T15:49:02.076Z,42.30
2019-02-21T15:51:28.559Z,42.30
2019-02-21T15:53:54.962Z,42.50
2019-02-21T15:56:21.528Z,42.50
2019-02-21T15:58:47.938Z,42.20
2019-02-21T16:01:14.425Z,42.70
2019-02-21T16:03:42.457Z,42.80
2019-02-21T16:06:09.182Z,42.90
2019-02-21T16:08:35.647Z,42.90
2019-02-21T16:11:04.092Z,43.00
2019-02-21T16:13:30.715Z,43.00
2019-02-21T16:15:57.626Z,43.00
2019-02-21T16:18:24.371Z,43.10
2019-02-21T16:20:52.940Z,43.30
2019-02-21T16:23:19.448Z,43.40
2019-02-21T16:25:45.934Z,43.50
2019-02-21T16:28:12.313Z,43.80
2019-02-21T16:30:39.027Z,43.70
2019-02-21T16:33:05.432Z,43.90
2019-02-21T16:35:31.927Z,43.90
2019-02-21T16:37:58.814Z,44.00
2019-02-21T16:40:25.566Z,44.30
2019-02-21T16:42:52.270Z,44.10
2019-02-21T16:45:19.787Z,44.10
2019-02-21T16:47:46.235Z,44.20
2019-02-21T16:50:13.400Z,44.30
2019-02-21T16:52:40.175Z,44.30
2019-02-21T16:55:09.784Z,44.40
2019-02-21T16:57:36.426Z,44.40
2019-02-21T17:00:23.254Z,44.50
2019-02-21T17:02:49.927Z,44.40
2019-02-21T17:05:16.600Z,44.50
2019-02-21T17:07:43.200Z,44.60
2019-02-21T17:10:12.663Z,44.70
2019-02-21T17:12:39.299Z,44.70
2019-02-21T17:15:15.988Z,44.60
2019-02-21T17:17:42.623Z,44.70
2019-02-21T17:20:14.182Z,44.70
2019-02-21T17:22:40.640Z,44.80
2019-02-21T17:25:09.801Z,44.90
2019-02-21T17:27:36.283Z,44.90
2019-02-21T17:30:05.285Z,44.90
2019-02-21T17:32:32.656Z,45.00
2019-02-21T17:34:59.098Z,45.00
2019-02-21T17:37:25.544Z,45.00
2019-02-21T17:39:52.307Z,45.10
2019-02-21T17:42:18.662Z,45.10
2019-02-21T17:44:45.278Z,45.20
2019-02-21T17:47:11.618Z,45.30
2019-02-21T17:49:38.459Z,45.40
2019-02-21T17:52:04.954Z,45.40
2019-02-21T17:54:31.546Z,45.50
2019-02-21T17:56:57.993Z,45.60
2019-02-21T17:59:24.311Z,45.70
2019-02-21T18:01:50.762Z,45.80
2019-02-21T18:04:17.111Z,45.80
2019-02-21T18:06:43.639Z,45.80
2019-02-21T18:09:10.138Z,45.90
2019-02-21T18:11:36.966Z,46.00
2019-02-21T18:14:04.200Z,46.00
2019-02-21T18:16:30.905Z,46.10
2019-02-21T18:18:57.490Z,46.10
2019-02-21T18:21:23.793Z,46.30
2019-02-21T18:23:50.734Z,46.30
2019-02-21T18:26:17.715Z,46.30
2019-02-21T18:28:44.340Z,46.40
2019-02-21T18:31:16.371Z,46.50
2019-02-21T18:33:42.683Z,46.40
2019-02-21T18:36:09.235Z,46.50
2019-02-21T18:38:35.802Z,46.60
2019-02-21T18:41:02.291Z,46.60
2019-02-21T18:43:29.766Z,46.70
2019-02-21T18:45:57.608Z,46.80
2019-02-21T18:48:24.147Z,46.80
2019-02-21T18:50:50.492Z,46.90
2019-02-21T18:53:16.893Z,47.50
2019-02-21T18:55:43.362Z,47.10
2019-02-21T18:58:10.166Z,47.10
2019-02-21T19:00:37.024Z,47.20
2019-02-21T19:03:03.418Z,47.20
2019-02-21T19:05:35.738Z,47.30
2019-02-21T19:08:05.186Z,47.40
2019-02-21T19:10:27.633Z,47.50
2019-02-21T19:12:54.239Z,47.50
2019-02-21T19:15:21.634Z,47.50
2019-02-21T19:17:48.227Z,47.60
2019-02-21T19:20:16.346Z,47.60
2019-02-21T19:22:42.826Z,47.70
2019-02-21T19:25:10.411Z,47.70
2019-02-21T19:27:37.739Z,47.70
2019-02-21T19:30:17.075Z,47.70
2019-02-21T19:32:43.910Z,47.80
2019-02-21T19:35:10.557Z,47.80
2019-02-21T19:37:37.384Z,47.80
2019-02-21T19:40:07.371Z,47.90
2019-02-21T19:42:33.766Z,47.80
2019-02-21T19:45:00.305Z,47.80
2019-02-21T19:47:27.055Z,47.90
2019-02-21T19:49:53.622Z,47.80
2019-02-21T19:52:20.391Z,48.00
2019-02-21T19:54:47.276Z,47.90
2019-02-21T19:57:13.777Z,47.90
2019-02-21T19:59:40.359Z,47.90
2019-02-21T20:02:06.731Z,47.90
2019-02-21T20:04:33.206Z,47.90
2019-02-21T20:06:59.605Z,47.90
2019-02-21T20:09:26.331Z,48.00
2019-02-21T20:11:52.797Z,48.00
2019-02-21T20:14:19.425Z,48.10
2019-02-21T20:16:46.359Z,48.10
2019-02-21T20:19:12.739Z,48.40
2019-02-21T20:21:39.172Z,48.20
2019-02-21T20:24:05.678Z,48.30
2019-02-21T20:26:32.155Z,48.30
2019-02-21T20:28:58.546Z,48.40
2019-02-21T20:31:24.986Z,48.30
2019-02-21T20:33:51.682Z,48.40
2019-02-21T20:36:18.620Z,48.40
2019-02-21T20:38:45.099Z,48.40
2019-02-21T20:41:12.119Z,48.40
2019-02-21T20:43:38.470Z,48.50
2019-02-21T20:46:05.503Z,48.50
2019-02-21T20:48:32.053Z,48.50
2019-02-21T20:50:58.607Z,48.50
2019-02-21T20:53:24.936Z,48.60
2019-02-21T20:55:51.272Z,48.80
2019-02-21T20:58:17.910Z,48.90
2019-02-21T21:00:44.438Z,49.00
2019-02-21T21:03:10.972Z,49.00
2019-02-21T21:05:37.863Z,49.20
2019-02-21T21:08:04.372Z,49.80
2019-02-21T21:10:31.161Z,49.40
2019-02-21T21:12:57.893Z,49.60
2019-02-21T21:15:24.378Z,49.60
2019-02-21T21:17:50.687Z,50.30
2019-02-21T21:20:17.524Z,49.80
2019-02-21T21:22:44.558Z,49.90
2019-02-21T21:25:15.171Z,50.00
2019-02-21T21:27:42.147Z,50.00
2019-02-21T21:30:12.071Z,50.10
2019-02-21T21:32:40.579Z,50.10
2019-02-21T21:35:07.449Z,50.20
2019-02-21T21:37:35.563Z,50.30
2019-02-21T21:40:03.616Z,50.30
2019-02-21T21:42:30.931Z,50.30
2019-02-21T21:44:57.619Z,50.30
2019-02-21T21:47:23.995Z,50.40
2019-02-21T21:49:50.670Z,50.40
2019-02-21T21:52:17.166Z,50.50
2019-02-21T21:54:43.483Z,50.50
2019-02-21T21:57:10.182Z,50.60
2019-02-21T21:59:36.750Z,50.60
2019-02-21T22:02:03.668Z,50.60
2019-02-21T22:04:30.531Z,50.60
2019-02-21T22:06:57.072Z,50.60
2019-02-21T22:09:24.560Z,50.60
2019-02-21T22:11:50.867Z,50.60
2019-02-21T22:14:17.291Z,50.70
2019-02-21T22:16:43.847Z,50.80
2019-02-21T22:19:10.543Z,51.20
2019-02-21T22:21:36.920Z,50.80
2019-02-21T22:24:03.442Z,50.70
2019-02-21T22:26:29.882Z,50.80
2019-02-21T22:28:56.260Z,51.00
2019-02-21T22:31:22.531Z,51.00
2019-02-21T22:33:48.979Z,50.90
2019-02-21T22:36:15.779Z,50.90
2019-02-21T22:38:42.523Z,50.90
2019-02-21T22:41:09.369Z,51.00
2019-02-21T22:43:35.843Z,51.00
2019-02-21T22:46:02.641Z,51.10
2019-02-21T22:48:29.385Z,51.10
2019-02-21T22:50:56.228Z,51.10
2019-02-21T22:53:22.603Z,51.10
2019-02-21T22:55:49.145Z,51.10
2019-02-21T22:58:15.755Z,51.20
2019-02-21T23:00:54.100Z,51.30
2019-02-21T23:03:44.294Z,51.20
2019-02-21T23:06:29.266Z,51.20
2019-02-21T23:08:55.679Z,51.20
2019-02-21T23:11:22.910Z,51.20
2019-02-21T23:13:49.861Z,51.70
2019-02-21T23:16:16.434Z,51.20
2019-02-21T23:18:42.838Z,51.30
2019-02-21T23:21:09.194Z,51.30
2019-02-21T23:23:35.907Z,51.30
2019-02-21T23:26:02.274Z,51.50
2019-02-21T23:28:28.845Z,51.40
2019-02-21T23:30:55.241Z,51.40
2019-02-21T23:33:23.252Z,51.40
2019-02-21T23:35:49.940Z,51.40
2019-02-21T23:38:16.357Z,51.40
2019-02-21T23:40:42.785Z,51.50
2019-02-21T23:43:10.279Z,51.70
2019-02-21T23:45:37.065Z,51.60
2019-02-21T23:48:03.766Z,51.60
2019-02-21T23:50:30.162Z,51.80
2019-02-21T23:52:56.527Z,51.90
2019-02-21T23:55:23.203Z,51.80
2019-02-21T23:57:50.707Z,51.80
